Time;durP1;ratioP1;P1;durP2;ratioP2;P2;SDS_P1;SDS_P2;PMS_P1;PMS_P2;Temp;Humidity;BMP_temperature;BMP_pressure;BME280_temperature;BME280_humidity;BME280_pressure;Samples;Min_cycle;Max_cycle;Signal;HPM_P1;HPM_P2
2023/02/19 00:01:41;;;;;;;61.53;32.83;;;9.20;99.90;;;;;;6161060;23;20083;-85
2023/02/19 00:04:12;;;;;;;63.63;32.63;;;9.30;99.90;;;;;;6185903;23;20021;-84
2023/02/19 00:06:38;;;;;;;56.45;30.98;;;9.10;99.90;;;;;;6186112;23;20018;-85
2023/02/19 00:09:04;;;;;;;58.13;30.58;;;9.10;99.90;;;;;;6185992;23;20024;-85
2023/02/19 00:11:32;;;;;;;57.63;30.52;;;9.10;99.90;;;;;;6185940;23;20044;-85
2023/02/19 00:13:59;;;;;;;64.88;30.83;;;9.20;99.90;;;;;;6160964;23;20041;-85
2023/02/19 00:16:31;;;;;;;55.50;30.88;;;9.30;99.90;;;;;;6186714;23;20092;-84
2023/02/19 00:18:59;;;;;;;69.90;32.10;;;9.20;99.90;;;;;;6185784;23;20020;-84
2023/02/19 00:21:25;;;;;;;56.75;29.67;;;9.10;99.90;;;;;;6185418;23;20013;-84
2023/02/19 00:23:53;;;;;;;51.58;28.45;;;9.00;99.90;;;;;;6186194;23;20015;-85
2023/02/19 00:26:19;;;;;;;53.25;28.20;;;9.20;99.90;;;;;;6185772;23;20013;-84
2023/02/19 00:28:46;;;;;;;52.20;28.95;;;9.00;99.90;;;;;;6186247;23;20023;-85
2023/02/19 00:31:20;;;;;;;52.78;26.42;;;9.10;99.90;;;;;;6187638;23;20017;-85
2023/02/19 00:33:47;;;;;;;52.55;26.52;;;9.20;99.90;;;;;;6187567;23;20028;-86
2023/02/19 00:36:14;;;;;;;47.75;26.25;;;9.20;99.90;;;;;;6186030;23;20017;-84
2023/02/19 00:38:40;;;;;;;47.95;25.83;;;9.10;99.90;;;;;;6185690;23;20013;-85
2023/02/19 00:41:18;;;;;;;48.83;26.45;;;9.00;99.90;;;;;;6185566;23;20052;-84
2023/02/19 00:43:48;;;;;;;47.53;24.00;;;9.10;99.90;;;;;;6187528;23;20013;-84
2023/02/19 00:46:41;;;;;;;45.85;25.23;;;9.10;99.90;;;;;;6186096;23;20041;-85
2023/02/19 00:49:12;;;;;;;42.50;25.27;;;9.30;99.90;;;;;;6180148;23;20480;-84
2023/02/19 00:51:38;;;;;;;43.13;23.88;;;9.10;99.90;;;;;;6187371;23;20063;-84
2023/02/19 00:54:04;;;;;;;44.70;24.65;;;9.30;99.90;;;;;;6160657;23;20017;-84
2023/02/19 00:56:30;;;;;;;42.30;23.83;;;9.10;99.90;;;;;;6160787;23;20374;-85
2023/02/19 00:58:58;;;;;;;39.95;23.30;;;9.10;99.90;;;;;;6160712;23;20009;-85
2023/02/19 01:01:24;;;;;;;41.53;23.33;;;9.30;99.90;;;;;;6185870;23;20016;-85
2023/02/19 01:03:50;;;;;;;42.10;23.00;;;9.20;99.90;;;;;;6185451;23;20091;-85
2023/02/19 01:06:18;;;;;;;40.50;22.88;;;9.20;99.90;;;;;;6185475;23;20017;-84
2023/02/19 01:08:44;;;;;;;40.28;22.50;;;9.30;99.90;;;;;;6185571;23;20158;-84
2023/02/19 01:11:10;;;;;;;36.63;22.17;;;9.20;99.90;;;;;;6185564;23;20466;-84
2023/02/19 01:13:36;;;;;;;40.85;23.60;;;9.30;99.90;;;;;;6187260;23;20021;-83
2023/02/19 01:16:26;;;;;;;41.92;23.67;;;9.10;99.90;;;;;;6187348;23;20043;-84
2023/02/19 01:18:52;;;;;;;43.58;22.83;;;9.10;99.90;;;;;;6185485;23;20013;-83
2023/02/19 01:21:22;;;;;;;33.20;23.45;;;9.10;99.90;;;;;;6160764;23;20052;-84
2023/02/19 01:23:49;;;;;;;37.47;21.15;;;9.10;99.90;;;;;;6187204;23;20089;-84
2023/02/19 01:26:18;;;;;;;41.35;22.77;;;9.00;99.90;;;;;;6186648;23;20507;-84
2023/02/19 01:28:45;;;;;;;39.60;22.27;;;9.20;99.90;;;;;;6185071;23;20020;-84
2023/02/19 01:31:16;;;;;;;44.13;23.35;;;9.10;99.90;;;;;;6184869;23;20013;-84
2023/02/19 01:33:50;;;;;;;41.00;22.48;;;9.10;99.90;;;;;;6186915;23;20023;-84
2023/02/19 01:36:16;;;;;;;41.97;21.92;;;9.10;99.90;;;;;;6186721;23;20009;-84
2023/02/19 01:38:42;;;;;;;38.90;20.90;;;9.20;99.90;;;;;;6186847;23;20020;-84
2023/02/19 01:41:15;;;;;;;37.35;21.52;;;9.20;99.90;;;;;;6186450;23;20009;-85
2023/02/19 01:44:07;;;;;;;37.63;20.45;;;9.20;99.90;;;;;;6186872;23;20017;-84
2023/02/19 01:46:37;;;;;;;34.05;20.85;;;9.00;99.90;;;;;;6186825;23;20013;-84
2023/02/19 01:49:06;;;;;;;35.17;19.73;;;9.10;99.90;;;;;;6185373;23;20021;-84
2023/02/19 01:51:34;;;;;;;37.75;20.45;;;9.00;99.90;;;;;;6184988;23;20473;-84
2023/02/19 01:54:03;;;;;;;37.90;19.63;;;9.10;99.90;;;;;;6184889;23;20044;-84
2023/02/19 01:56:29;;;;;;;36.63;19.13;;;9.10;99.90;;;;;;6184955;23;20013;-85
2023/02/19 01:58:56;;;;;;;30.75;18.13;;;9.10;99.90;;;;;;6184992;23;20494;-84
2023/02/19 02:01:22;;;;;;;28.05;16.88;;;9.20;99.90;;;;;;6185006;23;20015;-85
2023/02/19 02:03:48;;;;;;;32.85;17.45;;;9.10;99.90;;;;;;6186800;23;20429;-85
2023/02/19 02:06:29;;;;;;;29.98;16.95;;;9.10;99.90;;;;;;6186923;23;20315;-84
2023/02/19 02:11:44;;;;;;;29.90;16.35;;;9.10;99.90;;;;;;6186683;23;19986;-84
2023/02/19 02:14:10;;;;;;;28.63;16.88;;;9.00;99.90;;;;;;6186535;23;20013;-84
2023/02/19 02:16:51;;;;;;;26.35;16.00;;;8.90;99.90;;;;;;6186659;23;20016;-85
2023/02/19 02:19:28;;;;;;;28.42;16.70;;;9.10;99.90;;;;;;6186310;23;20365;-85
2023/02/19 02:21:54;;;;;;;30.17;17.33;;;9.00;99.90;;;;;;6185076;23;20017;-85
2023/02/19 02:24:27;;;;;;;25.33;17.35;;;8.90;99.90;;;;;;6186502;23;20067;-86
2023/02/19 02:27:05;;;;;;;28.33;17.88;;;8.90;99.90;;;;;;6186620;23;20390;-85
2023/02/19 02:29:53;;;;;;;28.23;17.48;;;8.90;99.90;;;;;;6184280;23;20438;-83
2023/02/19 02:32:25;;;;;;;29.63;17.63;;;8.80;99.90;;;;;;6185224;23;20024;-84
2023/02/19 02:34:59;;;;;;;29.02;16.55;;;8.90;99.90;;;;;;6186687;23;20450;-85
2023/02/19 02:37:29;;;;;;;29.67;16.52;;;8.70;99.90;;;;;;6186564;23;20052;-85
2023/02/19 02:39:57;;;;;;;25.00;16.03;;;9.00;99.90;;;;;;6186095;23;20084;-85
2023/02/19 02:42:28;;;;;;;25.73;15.32;;;8.70;99.90;;;;;;6184474;23;20020;-84
2023/02/19 02:47:46;;;;;;;27.90;14.80;;;8.70;99.90;;;;;;6184382;23;20021;-84
2023/02/19 02:50:24;;;;;;;21.65;14.35;;;8.80;99.90;;;;;;6184731;23;20442;-84
2023/02/19 02:55:48;;;;;;;19.27;12.68;;;8.70;99.90;;;;;;6185930;23;20025;-84
2023/02/19 02:58:15;;;;;;;20.47;11.77;;;8.90;99.90;;;;;;6185949;23;20473;-83
2023/02/19 03:03:29;;;;;;;6.95;4.47;;;8.70;99.90;;;;;;6186790;23;20099;-83
2023/02/19 03:06:02;;;;;;;4.88;3.47;;;8.90;99.90;;;;;;6186233;23;20009;-83
2023/02/19 03:08:39;;;;;;;4.50;2.58;;;8.90;99.90;;;;;;6184281;23;20017;-83
2023/02/19 03:20:02;;;;;;;2.83;2.35;;;8.40;99.90;;;;;;6184379;23;20018;-83
2023/02/19 03:22:32;;;;;;;3.10;1.80;;;8.40;99.90;;;;;;6186287;23;20013;-83
2023/02/19 03:28:14;;;;;;;2.78;2.08;;;8.40;99.90;;;;;;6185730;23;20524;-84
2023/02/19 03:30:45;;;;;;;;;;;8.40;99.90;;;;;;6186285;23;20052;-83
2023/02/19 03:33:25;;;;;;;3.28;2.17;;;8.40;99.90;;;;;;6186044;23;19919;-83
2023/02/19 03:36:01;;;;;;;2.83;2.13;;;8.40;99.90;;;;;;6184450;23;20041;-83
2023/02/19 03:38:39;;;;;;;2.78;2.20;;;8.30;99.90;;;;;;6184284;23;20375;-83
2023/02/19 03:41:24;;;;;;;2.80;1.98;;;8.10;99.90;;;;;;6186131;23;20013;-83
2023/02/19 03:43:58;;;;;;;2.88;2.25;;;8.20;99.90;;;;;;6185978;23;20013;-83
2023/02/19 03:47:02;;;;;;;3.88;2.80;;;8.30;99.90;;;;;;6184043;23;20454;-84
2023/02/19 03:49:28;;;;;;;3.33;2.58;;;8.20;99.90;;;;;;6184113;23;20384;-84
2023/02/19 03:52:12;;;;;;;3.20;2.42;;;8.10;99.90;;;;;;6184720;23;20019;-84
2023/02/19 03:54:45;;;;;;;4.15;2.40;;;8.10;99.90;;;;;;6185961;23;20013;-84
2023/02/19 03:57:52;;;;;;;3.15;2.30;;;8.10;99.90;;;;;;6186653;23;20080;-82
2023/02/19 04:00:50;;;;;;;2.40;1.90;;;8.20;99.90;;;;;;6185087;23;20017;-82
2023/02/19 04:03:27;;;;;;;2.17;1.70;;;8.10;99.90;;;;;;6179862;23;20021;-82
2023/02/19 04:06:00;;;;;;;2.33;1.48;;;8.00;99.90;;;;;;6187568;23;20028;-83
2023/02/19 04:08:27;;;;;;;2.42;1.30;;;8.00;99.90;;;;;;6185899;23;20403;-82
2023/02/19 04:10:54;;;;;;;1.20;1.10;;;7.90;99.90;;;;;;6185684;23;20088;-83
2023/02/19 04:13:28;;;;;;;1.67;1.40;;;8.00;99.90;;;;;;6187688;23;20102;-82
2023/02/19 04:16:00;;;;;;;2.25;1.80;;;8.00;99.90;;;;;;6187637;23;20040;-82
2023/02/19 04:18:30;;;;;;;2.05;1.85;;;7.80;99.90;;;;;;6185675;23;20010;-83
2023/02/19 04:20:57;;;;;;;3.40;2.13;;;7.90;99.90;;;;;;6186299;23;20095;-82
2023/02/19 04:23:27;;;;;;;3.58;2.70;;;7.90;99.90;;;;;;6186226;23;20381;-83
2023/02/19 04:25:58;;;;;;;2.90;2.23;;;7.80;99.90;;;;;;6185778;23;20009;-82
2023/02/19 04:28:24;;;;;;;3.58;2.58;;;7.90;99.90;;;;;;6186157;23;20083;-83
2023/02/19 04:30:49;;;;;;;4.10;3.63;;;7.90;99.90;;;;;;6185517;23;20052;-82
2023/02/19 04:33:15;;;;;;;4.78;4.05;;;7.90;99.90;;;;;;6185632;23;20013;-82
2023/02/19 04:35:40;;;;;;;4.53;3.90;;;7.70;99.90;;;;;;6187386;23;20059;-82
2023/02/19 04:38:06;;;;;;;4.75;3.92;;;7.80;99.90;;;;;;6160953;23;20017;-82
2023/02/19 04:40:32;;;;;;;4.70;4.03;;;7.90;99.90;;;;;;6187679;23;20423;-82
2023/02/19 04:42:57;;;;;;;4.95;4.20;;;7.90;99.90;;;;;;6160771;23;20009;-82
2023/02/19 04:45:23;;;;;;;6.03;4.40;;;7.80;99.90;;;;;;6187617;23;20055;-82
2023/02/19 04:47:48;;;;;;;4.85;4.07;;;7.80;99.90;;;;;;6160857;23;20045;-82
2023/02/19 04:50:14;;;;;;;4.15;3.47;;;7.70;99.90;;;;;;6160926;23;20060;-82
2023/02/19 04:52:40;;;;;;;4.40;3.67;;;7.60;99.90;;;;;;6187345;23;20020;-82
2023/02/19 04:55:07;;;;;;;4.65;3.50;;;7.80;99.90;;;;;;6185890;23;20071;-82
2023/02/19 04:57:33;;;;;;;5.05;4.05;;;7.70;99.90;;;;;;6187320;23;20005;-82
2023/02/19 04:59:58;;;;;;;5.60;4.50;;;7.60;99.90;;;;;;6187194;23;20009;-83
2023/02/19 05:02:24;;;;;;;5.70;4.60;;;7.70;99.90;;;;;;6187208;23;20013;-82
2023/02/19 05:04:50;;;;;;;4.85;3.60;;;7.70;99.90;;;;;;6186653;23;20076;-83
2023/02/19 05:07:15;;;;;;;4.57;3.78;;;7.70;99.90;;;;;;6187360;23;20013;-82
2023/02/19 05:09:41;;;;;;;5.57;3.97;;;7.50;99.90;;;;;;6187156;23;20036;-82
2023/02/19 05:12:06;;;;;;;5.88;4.07;;;7.60;99.90;;;;;;6187082;23;20391;-82
2023/02/19 05:14:32;;;;;;;6.75;5.22;;;7.50;99.90;;;;;;6187494;23;20088;-82
2023/02/19 05:16:58;;;;;;;6.85;4.90;;;7.60;99.90;;;;;;6185487;23;20009;-82
2023/02/19 05:19:23;;;;;;;6.95;4.20;;;7.60;99.90;;;;;;6185186;23;20017;-82
2023/02/19 05:21:49;;;;;;;5.32;4.22;;;7.50;99.90;;;;;;6185855;23;20387;-83
2023/02/19 05:24:14;;;;;;;6.88;4.82;;;7.40;99.90;;;;;;6187045;23;20013;-82
2023/02/19 05:26:40;;;;;;;5.97;4.75;;;7.60;99.90;;;;;;6185475;23;20020;-83
2023/02/19 05:29:06;;;;;;;5.65;3.88;;;7.40;99.90;;;;;;6187133;23;20009;-83
2023/02/19 05:31:34;;;;;;;4.88;3.78;;;7.30;99.90;;;;;;6186586;23;20038;-83
2023/02/19 05:34:00;;;;;;;6.57;3.90;;;7.50;99.90;;;;;;6186722;23;20020;-83
2023/02/19 05:36:26;;;;;;;5.82;2.97;;;7.30;99.90;;;;;;6186926;23;20009;-83
2023/02/19 05:38:56;;;;;;;4.88;3.08;;;7.30;99.90;;;;;;6186579;23;20378;-83
2023/02/19 05:41:25;;;;;;;4.45;3.30;;;7.40;99.90;;;;;;6186570;23;20040;-83
2023/02/19 05:43:51;;;;;;;4.65;3.00;;;7.30;99.90;;;;;;6186869;23;20021;-83
2023/02/19 05:46:19;;;;;;;4.50;3.20;;;7.40;99.90;;;;;;6184943;23;20028;-83
2023/02/19 05:48:46;;;;;;;5.63;2.92;;;7.40;99.90;;;;;;6186694;23;20028;-82
2023/02/19 05:51:14;;;;;;;4.28;2.90;;;7.30;99.90;;;;;;6186720;23;20013;-83
2023/02/19 05:53:41;;;;;;;6.70;3.50;;;7.30;99.90;;;;;;6186685;23;20019;-83
2023/02/19 05:56:25;;;;;;;5.57;2.78;;;7.30;99.90;;;;;;6186769;23;20009;-83
2023/02/19 05:58:51;;;;;;;4.15;2.97;;;7.10;99.90;;;;;;6186396;23;20501;-83
2023/02/19 06:01:19;;;;;;;4.72;3.17;;;7.20;99.90;;;;;;6186700;23;20082;-83
2023/02/19 06:03:44;;;;;;;4.50;2.88;;;7.00;99.90;;;;;;6186613;23;20075;-82
2023/02/19 06:06:19;;;;;;;5.60;3.15;;;7.00;99.90;;;;;;6186747;23;20435;-83
2023/02/19 06:08:47;;;;;;;4.68;3.30;;;6.90;99.90;;;;;;6186552;23;20020;-83
2023/02/19 06:11:12;;;;;;;4.75;3.42;;;7.00;99.90;;;;;;6186587;23;20032;-82
2023/02/19 06:13:38;;;;;;;4.53;2.95;;;6.90;99.90;;;;;;6186552;23;20378;-82
2023/02/19 06:16:05;;;;;;;7.00;3.17;;;6.90;99.90;;;;;;6187188;23;20334;-82
2023/02/19 06:18:31;;;;;;;5.25;3.45;;;7.10;99.90;;;;;;6187105;23;20017;-82
2023/02/19 06:21:06;;;;;;;5.63;3.55;;;7.00;99.90;;;;;;6185890;23;20067;-82
2023/02/19 06:23:32;;;;;;;4.82;3.33;;;7.00;99.90;;;;;;6186112;23;20009;-82
2023/02/19 06:26:11;;;;;;;4.47;3.42;;;7.00;99.90;;;;;;6187030;23;20088;-83
2023/02/19 06:28:38;;;;;;;5.85;3.90;;;6.90;99.90;;;;;;6160492;23;20438;-82
2023/02/19 06:31:04;;;;;;;5.40;3.88;;;7.00;99.90;;;;;;6184204;23;20024;-82
2023/02/19 06:33:31;;;;;;;6.05;4.20;;;7.00;99.90;;;;;;6186330;23;20013;-82
2023/02/19 06:35:59;;;;;;;4.47;3.60;;;6.90;99.90;;;;;;6186259;23;20017;-82
2023/02/19 06:38:25;;;;;;;6.82;4.40;;;7.00;99.90;;;;;;6186395;23;20009;-82
2023/02/19 06:40:51;;;;;;;6.13;4.18;;;6.80;99.90;;;;;;6184495;23;20036;-82
2023/02/19 06:43:17;;;;;;;6.22;4.20;;;6.90;99.90;;;;;;6186720;23;20013;-83
2023/02/19 06:45:42;;;;;;;6.30;4.15;;;6.80;99.90;;;;;;6186322;23;20020;-82
2023/02/19 06:48:08;;;;;;;5.82;3.60;;;6.80;99.90;;;;;;6184468;23;20021;-83
2023/02/19 06:50:34;;;;;;;5.53;4.10;;;6.80;99.90;;;;;;6184536;23;20017;-83
2023/02/19 06:52:59;;;;;;;7.57;4.53;;;7.00;99.90;;;;;;6186379;23;20031;-82
2023/02/19 06:55:25;;;;;;;8.05;4.07;;;6.80;99.90;;;;;;6186223;23;20013;-82
2023/02/19 06:57:50;;;;;;;9.27;4.97;;;6.70;99.90;;;;;;6186190;23;20453;-82
2023/02/19 07:00:16;;;;;;;8.52;4.85;;;6.80;99.90;;;;;;6186181;23;20089;-82
2023/02/19 07:02:42;;;;;;;6.10;4.00;;;7.00;99.90;;;;;;6184369;23;20013;-83
2023/02/19 07:05:08;;;;;;;6.97;4.95;;;6.90;99.90;;;;;;6159519;23;20025;-82
2023/02/19 07:07:34;;;;;;;7.32;4.70;;;6.80;99.90;;;;;;6184328;23;20016;-82
2023/02/19 07:09:59;;;;;;;7.90;4.35;;;6.90;99.90;;;;;;6186170;23;20068;-82
2023/02/19 07:12:28;;;;;;;4.32;3.30;;;7.00;99.90;;;;;;6184134;23;20327;-82
2023/02/19 07:14:53;;;;;;;3.65;2.80;;;7.10;99.90;;;;;;6184093;23;20017;-82
2023/02/19 07:17:19;;;;;;;3.05;2.50;;;6.90;99.90;;;;;;6186222;23;20009;-82
2023/02/19 07:19:45;;;;;;;3.75;2.67;;;6.90;99.90;;;;;;6184211;23;20024;-82
2023/02/19 07:22:10;;;;;;;4.13;3.00;;;6.90;99.90;;;;;;6186204;23;20464;-82
2023/02/19 07:24:36;;;;;;;4.68;2.90;;;7.00;99.90;;;;;;6186182;23;20013;-82
2023/02/19 07:27:01;;;;;;;3.15;2.55;;;7.00;99.90;;;;;;6186257;23;20504;-82
2023/02/19 07:29:27;;;;;;;4.65;2.85;;;6.90;99.90;;;;;;6186919;23;20010;-81
2023/02/19 07:31:53;;;;;;;4.35;2.75;;;7.10;99.90;;;;;;6187448;23;20380;-82
2023/02/19 07:34:19;;;;;;;3.33;2.60;;;7.00;99.90;;;;;;6186373;23;20052;-82
2023/02/19 07:36:45;;;;;;;3.72;2.90;;;6.90;99.90;;;;;;6186385;23;20116;-82
2023/02/19 07:39:12;;;;;;;5.18;3.05;;;7.00;99.90;;;;;;6186231;23;20028;-82
2023/02/19 07:41:37;;;;;;;3.35;2.75;;;6.90;99.90;;;;;;6161257;23;20009;-82
2023/02/19 07:44:03;;;;;;;4.45;3.20;;;7.10;99.90;;;;;;6186110;23;20069;-82
2023/02/19 07:46:29;;;;;;;3.92;2.80;;;7.10;99.90;;;;;;6186070;23;20009;-82
2023/02/19 07:48:55;;;;;;;2.97;2.60;;;6.90;99.90;;;;;;6187841;23;20009;-83
2023/02/19 07:51:21;;;;;;;3.50;2.65;;;6.90;99.90;;;;;;6188125;23;20355;-82
2023/02/19 07:53:50;;;;;;;5.70;2.90;;;7.10;99.90;;;;;;6187211;23;20017;-82
2023/02/19 07:56:17;;;;;;;4.53;3.10;;;6.90;99.90;;;;;;6186331;23;20013;-83
2023/02/19 07:58:44;;;;;;;3.97;2.78;;;7.00;99.90;;;;;;6186472;23;20013;-82
2023/02/19 08:01:16;;;;;;;5.32;3.30;;;6.90;99.90;;;;;;6186066;23;20061;-82
2023/02/19 08:03:43;;;;;;;4.13;3.20;;;6.90;99.90;;;;;;6187854;23;20009;-82
2023/02/19 08:06:10;;;;;;;4.68;2.95;;;7.00;99.90;;;;;;6186111;23;20439;-82
2023/02/19 08:08:36;;;;;;;4.65;3.38;;;6.80;99.90;;;;;;6187192;23;20009;-82
2023/02/19 08:13:50;;;;;;;3.88;3.03;;;7.00;99.90;;;;;;6187619;23;20025;-82
2023/02/19 08:16:18;;;;;;;4.00;2.92;;;6.90;99.90;;;;;;6187750;23;20009;-82
2023/02/19 08:18:47;;;;;;;4.22;3.08;;;6.80;99.90;;;;;;6187736;23;20343;-82
2023/02/19 08:21:13;;;;;;;4.93;3.20;;;7.10;99.90;;;;;;6187476;23;20058;-82
2023/02/19 08:23:39;;;;;;;4.03;2.95;;;7.00;99.90;;;;;;6185828;23;20044;-82
2023/02/19 08:26:06;;;;;;;4.68;3.33;;;6.90;99.90;;;;;;6161010;23;20020;-81
2023/02/19 08:28:31;;;;;;;4.00;3.22;;;7.00;99.90;;;;;;6187683;23;20017;-81
2023/02/19 08:31:03;;;;;;;3.75;2.90;;;7.00;99.90;;;;;;6160752;23;20472;-82
2023/02/19 08:33:29;;;;;;;3.60;2.92;;;6.90;99.90;;;;;;6161302;23;20016;-81
2023/02/19 08:35:55;;;;;;;4.45;2.78;;;7.10;99.90;;;;;;6185457;23;20096;-81
2023/02/19 08:38:21;;;;;;;3.58;2.97;;;7.20;99.90;;;;;;6185864;23;20060;-81
2023/02/19 08:40:47;;;;;;;4.07;2.70;;;7.30;99.90;;;;;;6160724;23;20370;-82
2023/02/19 08:43:15;;;;;;;3.33;2.63;;;7.10;99.90;;;;;;6160515;23;20502;-82
2023/02/19 08:45:43;;;;;;;4.30;2.85;;;7.00;99.90;;;;;;6160658;23;20028;-81
2023/02/19 08:48:10;;;;;;;3.38;2.80;;;7.10;99.90;;;;;;6185646;23;20019;-81
2023/02/19 08:50:36;;;;;;;3.75;2.83;;;7.00;99.90;;;;;;6185434;23;20017;-81
2023/02/19 08:53:03;;;;;;;3.35;2.40;;;7.10;99.90;;;;;;6160714;23;20051;-81
2023/02/19 08:55:29;;;;;;;7.60;2.92;;;7.20;99.90;;;;;;6185815;23;20080;-82
2023/02/19 08:57:54;;;;;;;3.25;2.53;;;7.20;99.90;;;;;;6187256;23;20013;-81
2023/02/19 09:00:21;;;;;;;4.07;2.92;;;7.10;99.90;;;;;;6185358;23;20009;-81
2023/02/19 09:02:47;;;;;;;3.58;2.50;;;7.20;99.90;;;;;;6185736;23;20016;-81
2023/02/19 09:05:13;;;;;;;2.58;2.00;;;7.20;99.90;;;;;;6185411;23;20371;-81
2023/02/19 09:07:39;;;;;;;2.85;1.63;;;7.10;99.90;;;;;;6160598;23;20045;-81
2023/02/19 09:10:06;;;;;;;3.60;1.90;;;7.10;99.90;;;;;;6185141;23;20311;-75
2023/02/19 09:12:32;;;;;;;2.47;2.00;;;7.20;99.90;;;;;;6160403;23;20020;-77
2023/02/19 09:14:59;;;;;;;2.83;2.20;;;7.20;99.90;;;;;;6160205;23;20009;-76
2023/02/19 09:17:25;;;;;;;2.95;1.58;;;7.30;99.90;;;;;;6187088;23;20371;-77
2023/02/19 09:19:50;;;;;;;2.38;1.40;;;7.40;99.90;;;;;;6185137;23;20013;-75
2023/02/19 09:22:16;;;;;;;3.22;1.33;;;7.50;99.90;;;;;;6160583;23;20092;-80
2023/02/19 09:24:42;;;;;;;2.88;1.75;;;7.60;99.90;;;;;;6185702;23;20518;-79
2023/02/19 09:27:15;;;;;;;5.32;2.67;;;7.60;99.90;;;;;;6185883;23;20055;-82
2023/02/19 09:29:41;;;;;;;3.88;2.10;;;7.70;99.90;;;;;;6186868;23;20028;-82
2023/02/19 09:32:06;;;;;;;3.90;2.10;;;7.90;99.90;;;;;;6186600;23;20017;-82
2023/02/19 09:34:33;;;;;;;3.85;2.33;;;7.90;99.90;;;;;;6186504;23;20017;-81
2023/02/19 09:36:59;;;;;;;2.58;1.70;;;7.90;99.90;;;;;;6185250;23;20017;-76
2023/02/19 09:39:24;;;;;;;3.10;1.38;;;8.10;99.90;;;;;;6186836;23;20009;-77
2023/02/19 09:42:00;;;;;;;3.50;1.70;;;8.10;99.90;;;;;;6185006;23;20013;-77
2023/02/19 09:44:35;;;;;;;2.15;1.70;;;8.10;99.90;;;;;;6186755;23;20127;-81
2023/02/19 09:47:05;;;;;;;2.40;1.60;;;8.10;99.90;;;;;;6186742;23;20013;-76
2023/02/19 09:49:34;;;;;;;3.45;1.33;;;8.00;99.90;;;;;;6187173;23;20013;-77
2023/02/19 09:52:08;;;;;;;3.55;1.77;;;8.00;99.90;;;;;;6184860;23;20071;-77
2023/02/19 09:54:36;;;;;;;2.50;1.50;;;8.00;99.90;;;;;;6184654;23;20016;-79
2023/02/19 09:57:03;;;;;;;2.92;1.40;;;8.00;99.90;;;;;;6184785;23;20020;-83
2023/02/19 09:59:50;;;;;;;1.73;1.30;;;7.90;99.90;;;;;;6186848;23;20063;-84
2023/02/19 10:02:22;;;;;;;2.78;1.20;;;8.00;99.90;;;;;;6185792;23;20335;-86
2023/02/19 10:04:52;;;;;;;2.33;1.48;;;8.00;99.90;;;;;;6187325;23;20307;-88
2023/02/19 10:07:36;;;;;;;5.20;1.65;;;8.00;99.90;;;;;;6163068;23;20013;-85
2023/02/19 10:10:21;;;;;;;2.75;1.27;;;8.10;99.90;;;;;;6186696;23;20028;-77
2023/02/19 10:12:54;;;;;;;4.45;1.38;;;8.20;99.90;;;;;;6185224;23;20063;-77
2023/02/19 10:15:24;;;;;;;2.40;1.20;;;8.30;99.90;;;;;;6184636;23;20013;-76
2023/02/19 10:17:50;;;;;;;2.95;1.13;;;8.40;99.90;;;;;;6159832;23;20044;-77
2023/02/19 10:20:21;;;;;;;3.33;1.00;;;8.40;99.90;;;;;;6184598;23;20342;-76
2023/02/19 10:22:47;;;;;;;3.65;0.75;;;8.60;99.90;;;;;;6185008;23;20017;-73
2023/02/19 10:25:15;;;;;;;1.13;0.90;;;8.80;99.90;;;;;;6186070;23;20375;-75
2023/02/19 10:27:41;;;;;;;2.83;1.00;;;8.80;99.90;;;;;;6184528;23;20382;-74
2023/02/19 10:30:18;;;;;;;1.67;0.90;;;8.80;99.90;;;;;;6184343;23;20072;-74
2023/02/19 10:33:16;;;;;;;1.85;0.80;;;9.00;99.90;;;;;;6159925;23;20052;-76
2023/02/19 10:36:16;;;;;;;2.08;0.90;;;9.00;99.90;;;;;;6136050;23;20355;-81
2023/02/19 10:38:46;;;;;;;2.10;1.10;;;9.00;99.90;;;;;;6159907;23;20438;-77
2023/02/19 10:41:13;;;;;;;2.10;1.30;;;8.90;99.90;;;;;;6184843;23;20371;-77
2023/02/19 10:43:44;;;;;;;2.20;1.20;;;8.50;99.90;;;;;;6184437;23;20083;-77
2023/02/19 10:46:20;;;;;;;3.85;1.27;;;8.30;99.90;;;;;;6184504;23;20009;-79
2023/02/19 10:48:56;;;;;;;1.92;1.30;;;8.40;99.90;;;;;;6186063;23;20414;-78
2023/02/19 10:51:34;;;;;;;3.08;1.50;;;8.30;99.90;;;;;;6186398;23;20013;-77
2023/02/19 10:54:10;;;;;;;3.83;1.38;;;8.40;99.90;;;;;;6184992;23;20013;-67
2023/02/19 10:56:37;;;;;;;2.80;1.20;;;8.60;99.90;;;;;;6184393;23;20013;-76
2023/02/19 10:59:17;;;;;;;3.58;1.58;;;8.90;99.90;;;;;;6186138;23;20013;-76
2023/02/19 11:01:57;;;;;;;2.65;1.20;;;9.00;99.90;;;;;;6184663;23;20096;-76
2023/02/19 11:04:34;;;;;;;2.72;1.40;;;9.20;99.90;;;;;;6184614;23;20013;-77
2023/02/19 11:07:17;;;;;;;2.90;1.67;;;9.40;99.90;;;;;;6184285;23;20024;-76
2023/02/19 11:09:46;;;;;;;2.80;1.50;;;9.50;99.90;;;;;;6186117;23;20088;-77
2023/02/19 11:12:27;;;;;;;1.80;1.55;;;9.40;99.90;;;;;;6185717;23;20092;-76
2023/02/19 11:14:53;;;;;;;3.08;1.65;;;9.50;99.90;;;;;;6159360;23;20009;-76
2023/02/19 11:17:28;;;;;;;3.70;1.40;;;9.40;99.90;;;;;;6184659;23;20013;-76
2023/02/19 11:20:05;;;;;;;4.20;1.80;;;9.40;99.90;;;;;;6184264;23;20087;-76
2023/02/19 11:22:40;;;;;;;4.28;1.80;;;9.40;99.90;;;;;;6184289;23;20045;-77
2023/02/19 11:25:09;;;;;;;2.53;1.35;;;9.40;99.90;;;;;;6184143;23;20088;-76
2023/02/19 11:27:35;;;;;;;3.90;1.52;;;9.40;99.90;;;;;;6186024;23;20127;-77
2023/02/19 11:30:29;;;;;;;2.42;1.80;;;9.50;99.90;;;;;;6183956;23;20017;-76
2023/02/19 11:32:56;;;;;;;3.45;1.67;;;9.40;99.90;;;;;;6184133;23;20091;-76
2023/02/19 11:35:24;;;;;;;4.43;2.10;;;9.30;99.90;;;;;;6184061;23;20045;-77
2023/02/19 11:38:00;;;;;;;2.95;1.70;;;9.00;99.90;;;;;;6184263;23;20087;-76
2023/02/19 11:40:43;;;;;;;4.20;1.88;;;9.00;99.90;;;;;;6159300;23;20460;-76
2023/02/19 11:43:23;;;;;;;3.10;1.50;;;9.30;99.90;;;;;;6159308;23;20088;-76
2023/02/19 11:46:02;;;;;;;2.90;1.50;;;9.50;99.90;;;;;;6184533;23;20072;-76
2023/02/19 11:48:52;;;;;;;3.40;1.30;;;9.40;99.90;;;;;;6159178;23;20013;-76
2023/02/19 11:51:43;;;;;;;2.92;1.73;;;9.40;99.90;;;;;;6160217;23;20021;-75
2023/02/19 11:54:18;;;;;;;2.53;1.42;;;9.40;99.90;;;;;;6185926;23;20013;-75
2023/02/19 11:57:13;;;;;;;1.83;1.10;;;9.30;99.90;;;;;;6184049;23;20048;-76
2023/02/19 11:59:51;;;;;;;1.92;1.00;;;9.40;99.90;;;;;;6161965;23;20017;-76
2023/02/19 12:02:23;;;;;;;2.17;1.00;;;9.20;99.90;;;;;;6184732;23;20013;-83
2023/02/19 12:05:04;;;;;;;4.10;1.25;;;9.20;99.90;;;;;;6184805;23;20083;-83
2023/02/19 12:07:35;;;;;;;3.42;1.30;;;9.30;99.90;;;;;;6184772;23;20013;-79
2023/02/19 12:10:13;;;;;;;3.05;1.67;;;9.70;99.90;;;;;;6184296;23;20016;-79
2023/02/19 12:13:01;;;;;;;6.35;2.17;;;9.80;99.90;;;;;;6159714;23;20017;-81
2023/02/19 12:15:43;;;;;;;2.20;1.60;;;10.00;99.90;;;;;;6184115;23;20024;-75
2023/02/19 12:18:28;;;;;;;2.05;1.13;;;10.20;99.90;;;;;;6184578;23;20008;-79
2023/02/19 12:21:28;;;;;;;2.08;1.20;;;10.30;99.90;;;;;;6187871;23;20020;-79
2023/02/19 12:23:54;;;;;;;;;;;10.40;99.90;;;;;;6188344;23;20017;-77
2023/02/19 12:26:26;;;;;;;2.75;1.17;;;10.30;99.90;;;;;;6185699;23;19923;-77
2023/02/19 12:29:24;;;;;;;3.05;1.02;;;10.20;99.90;;;;;;6186248;23;20013;-77
2023/02/19 12:32:08;;;;;;;2.42;1.25;;;10.10;99.90;;;;;;6119779;23;20451;-78
2023/02/19 12:34:39;;;;;;;2.72;1.00;;;9.70;99.90;;;;;;6107018;23;20021;-78
2023/02/19 12:37:14;;;;;;;2.65;0.90;;;9.30;99.90;;;;;;6158340;23;20013;-77
2023/02/19 12:40:24;;;;;;;2.03;0.90;;;9.40;99.90;;;;;;6130514;23;20009;-76
2023/02/19 12:43:02;;;;;;;2.22;0.70;;;9.20;99.90;;;;;;6043448;23;20101;-75
2023/02/19 12:45:39;;;;;;;1.77;0.73;;;9.20;99.90;;;;;;6067502;23;20014;-75
2023/02/19 12:48:10;;;;;;;2.17;0.75;;;9.20;99.90;;;;;;6043269;23;20023;-75
2023/02/19 12:50:39;;;;;;;1.83;0.70;;;9.30;99.90;;;;;;6043287;23;20066;-75
2023/02/19 12:53:30;;;;;;;1.50;0.60;;;9.40;99.90;;;;;;6067252;23;20480;-75
2023/02/19 12:55:57;;;;;;;2.22;0.70;;;9.60;99.90;;;;;;6067102;23;20018;-75
2023/02/19 12:58:31;;;;;;;2.25;1.02;;;9.70;99.90;;;;;;6043136;23;20019;-75
2023/02/19 13:00:58;;;;;;;0.85;0.77;;;9.50;99.90;;;;;;6067255;23;20015;-75
2023/02/19 13:03:36;;;;;;;2.00;0.85;;;9.50;99.90;;;;;;6043195;23;20034;-76
2023/02/19 13:06:26;;;;;;;0.75;0.63;;;9.50;99.90;;;;;;6067886;23;20045;-75
2023/02/19 13:08:54;;;;;;;;;;;9.30;99.90;;;;;;6067918;23;20014;-75
2023/02/19 13:11:30;;;;;;;2.45;0.70;;;9.10;99.90;;;;;;6043393;23;20006;-74
2023/02/19 13:14:01;;;;;;;3.40;0.95;;;9.10;99.90;;;;;;6043070;23;20310;-74
2023/02/19 13:16:31;;;;;;;2.83;0.85;;;9.10;99.90;;;;;;6104557;23;20013;-74
2023/02/19 13:19:01;;;;;;;2.83;1.17;;;9.00;99.90;;;;;;6130912;23;20014;-75
2023/02/19 13:24:25;;;;;;;1.90;1.00;;;9.00;99.90;;;;;;6130844;23;20049;-74
2023/02/19 13:26:53;;;;;;;2.95;0.90;;;9.00;99.90;;;;;;6157315;23;20024;-75
2023/02/19 13:29:44;;;;;;;3.90;1.52;;;9.10;99.90;;;;;;6130737;23;20447;-75
2023/02/19 13:32:26;;;;;;;2.45;0.90;;;9.10;99.90;;;;;;6157165;23;20096;-78
2023/02/19 13:35:10;;;;;;;2.72;0.90;;;8.90;99.90;;;;;;6130702;23;20018;-71
2023/02/19 13:37:36;;;;;;;3.15;0.77;;;8.90;99.90;;;;;;6157115;23;20388;-71
2023/02/19 13:40:16;;;;;;;3.00;0.90;;;8.80;99.90;;;;;;6157260;23;20021;-71
2023/02/19 13:42:50;;;;;;;8.53;1.23;;;8.90;99.90;;;;;;6157494;23;20013;-78